Skip Navigation Links Skip Navigation Links

Current Weather

Kleine Brogel, Belgium

For information only: do not use for flight planning or navigation.
Latest weather
Observation time Monday, October 18, 2021 9:25 PM CEST
Local time Monday, October 18, 2021 10:07 PM CEST
Flight conditions Visual Meteorological Conditions
Winds
Wind direction South (190°)
Wind speed 5 mph
Visibility 6.2 mi.
Sky condition
Ceiling 22,000 ft. broken clouds
Cloud layer broken clouds 22,000 ft.
Temperature 55°F
Dewpoint 50°F
Altimeter 30.12 in.Hg
Derived measurements
Relative humidity 82%
Density altitude -236 ft.
METAR EBBL 181925Z 19004KT 9999 BKN220 13/10 Q1020 BLU BLU

Settings

Location code

InnerDrive.Weather 4.0.6770.0 Release CLR 4.0.30319.42000
Copyright ©2018 Inner Drive Technology. All rights reserved. Portions Copyright ©1986-2018 David Braverman.

Find weather

Site navigation


Skip Navigation Links

Place info

Page info

PayPal - The safer, easier way to pay online!

Return home.

Copyright ©2021 Inner Drive Technology. Purveyors of fine, hand-crafted computer software. Page printed 2021-10-18T20:07:28 UTC.